Aérodrome :
LOGIN :

S'inscrire | Disclaimer

   EN    FR    IT 

 










Légende :    VFR   VFR Marginal   IFR   IFR Intensif   IFR Très Intensif
Visi : 
Plafond : 
>= 8 km
>= 3000ft
5 à 8 km
1000 à 3000 ft
1500m à 5 km
500 à 1000 ft
800 à 1500m
200 à 500 ft
< 800m
< 200 ft
Symboles :   Orages  Brouillard  Fortes neiges  Fortes précipitations  Vent > 20 kt
SIGMETs :   Divers  Orages  Givrage  Turbulence  Onde Orograph.  Cendres Volcan.






- Altitude de l'aérodrome : 82 ft
- Code IATA : QIE


LFMI - Istres

DERNIER METAR :
  • 140030Z AUTO 00000KT CAVOK 02/00 Q1006 TEMPO 4000 BR BECMG 09010KT

METARs EXPIRÉS :
  • 140000Z AUTO 13002KT CAVOK 03/01 Q1006 TEMPO 4000 BR
  • 132330Z AUTO VRB03KT CAVOK 03/01 Q1006 TEMPO 4000 BR
  • 132300Z AUTO VRB03KT CAVOK 05/01 Q1006 TEMPO 4000 BR
  • 132230Z AUTO 34005KT CAVOK 04/01 Q1006 TEMPO 4000 BR
  • 132200Z AUTO 32007KT CAVOK 05/02 Q1006 TEMPO 4000 BR

TAF TAF LFMI
Valide du 13 à 21h jusqu'au 14 à 21h UTC


132000Z 1321/1421 30010KT CAVOK
TEMPO 1323/1402 VRB02KT 4000 BR
BECMG 1402/1404 09010KT
BECMG 1408/1409 13015G25KT 4000 RA SCT015 BKN030
TEMPO 1409/1411 13025G35KT 2000 TSRA BKN015 BKN030CB
BECMG 1411/1413 16010KT 9999 NSW BKN020
TEMPO 1413/1419 VRB10KT 4000 SHRA BKN015
BECMG 1416/1418 34010KT



MET'MAP, la Météo Aéronautique d'un coup d'oeil ! - Copyright ORBIFLY Décembre 2007 - Disclaimer

ORBIFLY MET'MAP TEAM :

Programmation & Développement : Alexandra Zaïnal
Conception & Développement : Baudouin d'Aumeries
Co-Programmation & Développement : Marc-Olivier Méhu
Soutien technique & logistique : Manuel Goepfert

Contact : metmap@orbifly.com




SOURCES & CREDITS :

   NOAA